Time;durP1;ratioP1;P1;durP2;ratioP2;P2;SDS_P1;SDS_P2;PMS_P1;PMS_P2;Temp;Humidity;BMP_temperature;BMP_pressure;BME280_temperature;BME280_humidity;BME280_pressure;Samples;Min_cycle;Max_cycle;Signal;HPM_P1;HPM_P2
2022/05/31 00:01:29;;;;;;;6.57;5.97;;;;;;;23.14;66.85;99330.63;4992007;28;20209;-61
2022/05/31 00:03:56;;;;;;;8.10;7.23;;;;;;;23.16;66.71;99330.56;4991672;28;20198;-62
2022/05/31 00:06:23;;;;;;;8.87;6.17;;;;;;;23.10;66.85;99323.78;4989594;28;20198;-61
2022/05/31 00:08:50;;;;;;;9.13;6.63;;;;;;;23.06;66.82;99324.81;4991449;28;20942;-61
2022/05/31 00:11:18;;;;;;;12.60;6.50;;;;;;;22.98;66.03;99336.50;4990746;28;20198;-61
2022/05/31 00:13:45;;;;;;;8.37;6.57;;;;;;;22.95;65.09;99336.59;4984481;28;20206;-56
2022/05/31 00:16:12;;;;;;;8.87;6.67;;;;;;;22.90;64.53;99334.16;4990901;28;20206;-55
2022/05/31 00:18:39;;;;;;;11.00;6.80;;;;;;;22.87;63.69;99335.13;4991125;28;20665;-55
2022/05/31 00:21:07;;;;;;;9.50;6.53;;;;;;;22.85;63.51;99336.94;4990093;28;20218;-55
2022/05/31 00:23:34;;;;;;;9.43;6.70;;;;;;;22.80;63.14;99338.00;4989265;28;20190;-55
2022/05/31 00:26:01;;;;;;;10.10;7.40;;;;;;;22.70;62.96;99347.09;4990885;28;20282;-54
2022/05/31 00:28:30;;;;;;;10.40;6.90;;;;;;;22.63;63.24;99345.59;4988434;28;20197;-55
2022/05/31 00:30:57;;;;;;;8.37;6.80;;;;;;;22.59;63.29;99352.69;4991002;28;20194;-62
2022/05/31 00:33:25;;;;;;;8.80;6.90;;;;;;;22.58;63.15;99350.16;4990302;28;20451;-62
2022/05/31 00:35:53;;;;;;;10.50;6.83;;;;;;;22.56;64.00;99347.56;4991364;28;20260;-61
2022/05/31 00:38:21;;;;;;;10.07;7.20;;;;;;;22.51;63.40;99349.50;4991232;28;20190;-61
2022/05/31 00:40:48;;;;;;;9.23;7.77;;;;;;;22.48;62.64;99346.97;4991043;28;20197;-62
2022/05/31 00:43:22;;;;;;;8.30;6.40;;;;;;;22.43;62.82;99353.28;4990617;28;20257;-62
2022/05/31 00:45:55;;;;;;;10.57;7.65;;;;;;;22.43;63.07;99355.88;4996551;28;20849;-61
2022/05/31 00:48:25;;;;;;;10.43;7.13;;;;;;;22.37;63.46;99350.84;5010940;28;21017;-61
2022/05/31 00:50:55;;;;;;;8.43;7.40;;;;;;;22.30;64.09;99351.06;5010610;28;20194;-61
2022/05/31 00:53:26;;;;;;;9.93;7.57;;;;;;;22.33;64.47;99358.81;5009755;28;20447;-61
2022/05/31 00:55:56;;;;;;;12.40;8.00;;;;;;;22.36;64.33;99352.59;5010701;28;20239;-61
2022/05/31 00:58:30;;;;;;;10.87;7.77;;;;;;;22.30;64.58;99350.22;4997812;28;20214;-61
2022/05/31 01:01:02;;;;;;;14.07;8.20;;;;;;;22.25;64.94;99359.97;4990965;28;20201;-62
2022/05/31 01:03:29;;;;;;;12.20;7.60;;;;;;;22.25;64.94;99349.50;4990810;28;20201;-62
2022/05/31 01:05:56;;;;;;;11.47;7.67;;;;;;;22.21;65.65;99353.13;4991008;28;20205;-61
2022/05/31 01:08:23;;;;;;;8.97;7.80;;;;;;;22.19;66.02;99365.44;5003949;28;20667;-61
2022/05/31 01:10:50;;;;;;;11.33;7.67;;;;;;;22.16;66.21;99355.91;5010262;28;20284;-62
2022/05/31 01:13:18;;;;;;;11.15;8.32;;;;;;;22.14;66.44;99347.22;5009776;28;20505;-61
2022/05/31 01:15:47;;;;;;;11.13;7.63;;;;;;;22.12;66.34;99356.03;5010543;28;20189;-62
2022/05/31 01:18:16;;;;;;;11.93;8.10;;;;;;;22.12;66.26;99350.81;5010276;28;20198;-61
2022/05/31 01:20:44;;;;;;;11.93;7.83;;;;;;;21.88;66.48;99314.97;5010131;28;20190;-62
2022/05/31 01:23:14;;;;;;;10.10;7.80;;;;;;;22.08;66.75;99355.31;5009978;28;20197;-60
2022/05/31 01:26:10;;;;;;;10.93;7.73;;;;;;;22.05;66.75;99363.25;5010295;28;20202;-61
2022/05/31 01:28:53;;;;;;;14.30;9.00;;;;;;;22.04;66.79;99360.69;5010481;28;20185;-60
2022/05/31 01:31:31;;;;;;;12.73;9.02;;;;;;;22.04;66.71;99356.31;5008940;28;20447;-60
2022/05/31 01:34:05;;;;;;;9.43;8.43;;;;;;;22.10;66.21;99355.25;5010051;28;20296;-61
2022/05/31 01:36:37;;;;;;;12.87;8.40;;;;;;;22.01;66.65;99348.56;5010034;28;20680;-60
2022/05/31 01:39:08;;;;;;;14.77;9.13;;;;;;;22.00;66.67;99354.69;5009992;28;20194;-60
2022/05/31 01:41:42;;;;;;;10.93;8.67;;;;;;;21.93;66.60;99357.53;5010178;28;20193;-62
2022/05/31 01:44:13;;;;;;;10.97;7.90;;;;;;;21.93;66.96;99357.53;5009972;28;20196;-62
2022/05/31 01:46:41;;;;;;;11.73;7.77;;;;;;;21.91;67.10;99359.38;5009807;28;20285;-61
2022/05/31 01:49:12;;;;;;;13.03;8.20;;;;;;;21.90;67.05;99361.13;5010079;28;20248;-62
2022/05/31 01:51:42;;;;;;;11.87;8.40;;;;;;;21.85;66.88;99373.47;5010035;28;20585;-61
2022/05/31 01:54:10;;;;;;;12.25;8.95;;;;;;;21.84;67.25;99379.59;5012847;28;20450;-61
2022/05/31 01:56:38;;;;;;;11.60;8.73;;;;;;;21.75;67.46;99380.72;5014244;28;20189;-62
2022/05/31 01:59:06;;;;;;;8.53;7.73;;;;;;;21.76;67.29;99386.81;5013839;28;20200;-61
2022/05/31 02:01:36;;;;;;;12.07;9.17;;;;;;;21.74;67.53;99393.84;4974998;28;20202;-62
2022/05/31 02:04:04;;;;;;;14.53;8.23;;;;;;;21.68;67.72;99397.50;4974698;28;20697;-62
2022/05/31 02:06:33;;;;;;;11.07;8.20;;;;;;;21.65;67.69;99389.75;4974523;28;20198;-62
2022/05/31 02:09:02;;;;;;;15.17;8.73;;;;;;;21.64;67.78;99395.91;4974413;28;20195;-62
2022/05/31 02:11:29;;;;;;;11.40;9.02;;;;;;;21.55;67.43;99371.78;4973795;28;20437;-62
2022/05/31 02:13:58;;;;;;;11.10;8.63;;;;;;;21.77;66.97;99407.72;4974199;28;20219;-62
2022/05/31 02:16:25;;;;;;;13.97;8.30;;;;;;;21.78;66.52;99406.78;4974386;28;20203;-61
2022/05/31 02:21:47;;;;;;;12.33;8.50;;;;;;;21.68;66.27;99410.59;4895855;29;20604;-61
2022/05/31 02:24:16;;;;;;;12.07;8.27;;;;;;;21.67;66.49;99416.72;4955097;28;20202;-61
2022/05/31 02:26:44;;;;;;;12.47;8.30;;;;;;;21.67;66.23;99418.50;4974748;28;20202;-61
2022/05/31 02:29:13;;;;;;;12.63;8.17;;;;;;;21.67;66.38;99423.72;4974171;28;20191;-61
2022/05/31 02:31:41;;;;;;;11.33;8.30;;;;;;;21.48;65.90;99386.78;4973974;28;20202;-61
2022/05/31 02:34:09;;;;;;;13.50;8.52;;;;;;;21.65;66.12;99426.38;4973812;28;20460;-62
2022/05/31 02:36:36;;;;;;;12.73;8.43;;;;;;;21.67;65.44;99435.00;4974106;28;20199;-61
2022/05/31 02:39:03;;;;;;;11.77;7.13;;;;;;;21.66;65.04;99433.31;4974283;28;20218;-61
2022/05/31 02:41:32;;;;;;;12.53;8.73;;;;;;;21.71;64.79;99430.56;4973948;28;20670;-61
2022/05/31 02:44:00;;;;;;;12.83;8.77;;;;;;;21.70;64.81;99440.16;4973934;28;20297;-62
2022/05/31 02:46:27;;;;;;;15.70;8.63;;;;;;;21.64;64.34;99440.38;4974197;28;20187;-62
2022/05/31 02:48:54;;;;;;;12.67;8.57;;;;;;;21.65;64.67;99436.84;4974074;28;20198;-61
2022/05/31 02:51:21;;;;;;;14.93;9.15;;;;;;;21.65;64.69;99434.22;4972898;28;20453;-61
2022/05/31 02:53:48;;;;;;;12.23;8.00;;;;;;;21.53;64.47;99429.38;4973800;28;20753;-61
2022/05/31 02:56:15;;;;;;;12.03;7.53;;;;;;;21.53;64.90;99437.22;4973815;28;20508;-61
2022/05/31 02:58:44;;;;;;;13.13;7.87;;;;;;;21.53;64.85;99449.41;4973497;28;20198;-61
2022/05/31 03:01:23;;;;;;;11.37;7.83;;;;;;;21.52;65.28;99439.84;5002243;28;20206;-61
2022/05/31 03:03:50;;;;;;;19.33;9.00;;;;;;;21.57;65.27;99440.56;5011936;28;20232;-62
2022/05/31 03:06:16;;;;;;;11.30;8.30;;;;;;;21.58;65.54;99439.69;5012681;28;20255;-62
2022/05/31 03:08:43;;;;;;;13.50;8.83;;;;;;;21.58;65.98;99439.69;5012611;28;20201;-62
2022/05/31 03:11:15;;;;;;;13.57;8.73;;;;;;;21.58;65.76;99435.31;5012545;28;20197;-62
2022/05/31 03:13:46;;;;;;;10.97;9.23;;;;;;;21.66;65.87;99450.78;5012655;28;20280;-62
2022/05/31 03:16:15;;;;;;;10.53;9.53;;;;;;;21.63;66.51;99443.88;5012275;28;20197;-62
2022/05/31 03:18:48;;;;;;;10.53;9.30;;;;;;;21.69;66.47;99440.22;5012387;28;20197;-63
2022/05/31 03:21:20;;;;;;;13.97;9.57;;;;;;;21.76;66.64;99440.00;5012145;28;20306;-64
2022/05/31 03:23:52;;;;;;;16.13;9.63;;;;;;;21.83;66.71;99447.66;5012554;28;20185;-62
2022/05/31 03:26:22;;;;;;;12.40;8.73;;;;;;;21.88;66.82;99437.94;5012441;28;20221;-62
2022/05/31 03:28:50;;;;;;;12.47;10.03;;;;;;;21.94;66.64;99437.75;5012354;28;20200;-63
2022/05/31 03:31:17;;;;;;;12.55;9.57;;;;;;;22.04;67.08;99445.28;5011738;28;20446;-62
2022/05/31 03:33:44;;;;;;;13.33;9.40;;;;;;;22.09;66.80;99452.97;5012133;28;20201;-63
2022/05/31 03:36:12;;;;;;;12.33;8.80;;;;;;;22.05;67.07;99453.97;5012016;28;20225;-62
2022/05/31 03:38:39;;;;;;;10.80;9.13;;;;;;;22.05;67.00;99467.06;5012050;28;20198;-62
2022/05/31 03:41:06;;;;;;;13.80;9.53;;;;;;;22.00;67.23;99461.13;5012190;28;20193;-62
2022/05/31 03:43:34;;;;;;;14.97;9.87;;;;;;;22.06;67.42;99459.16;5011693;28;20193;-62
2022/05/31 03:46:03;;;;;;;11.13;9.37;;;;;;;21.98;67.92;99460.28;5008696;28;20216;-63
2022/05/31 03:48:30;;;;;;;10.57;9.33;;;;;;;22.04;67.63;99460.97;4992363;28;20198;-62
2022/05/31 03:51:01;;;;;;;16.20;9.57;;;;;;;22.10;67.52;99467.78;4991770;28;20194;-62
2022/05/31 03:53:28;;;;;;;16.60;9.50;;;;;;;22.16;66.89;99472.84;4992386;28;20189;-62
2022/05/31 03:55:55;;;;;;;14.20;10.27;;;;;;;22.21;66.76;99476.16;4991238;28;20455;-62
2022/05/31 03:58:22;;;;;;;11.00;9.67;;;;;;;22.13;66.72;99476.41;4991787;28;20346;-62
2022/05/31 04:00:50;;;;;;;11.63;9.07;;;;;;;22.12;66.59;99461.59;4991827;28;20264;-63
2022/05/31 04:03:18;;;;;;;11.03;9.30;;;;;;;22.31;66.73;99477.56;4991848;28;20194;-62
2022/05/31 04:05:46;;;;;;;11.83;9.67;;;;;;;22.33;66.41;99478.41;4991717;28;20216;-63
2022/05/31 04:08:13;;;;;;;12.17;10.13;;;;;;;22.39;66.30;99467.72;4991796;28;21065;-62
2022/05/31 04:10:41;;;;;;;15.20;10.02;;;;;;;22.41;66.02;99480.78;4991593;28;20454;-62
2022/05/31 04:13:08;;;;;;;13.77;9.77;;;;;;;22.46;65.72;99478.84;4991673;28;20248;-62
2022/05/31 04:15:36;;;;;;;10.70;9.40;;;;;;;22.54;65.52;99487.31;4991350;28;20237;-63
2022/05/31 04:18:05;;;;;;;13.63;9.57;;;;;;;22.51;64.78;99490.91;4991891;28;20558;-62
2022/05/31 04:20:33;;;;;;;15.70;8.83;;;;;;;22.53;64.23;99496.94;4991068;28;20194;-61
2022/05/31 04:25:41;;;;;;;11.80;10.10;;;;;;;22.39;64.05;99501.75;4990301;28;20547;-63
2022/05/31 04:28:09;;;;;;;16.60;11.93;;;;;;;22.21;65.15;99489.25;4991395;28;20519;-63
2022/05/31 04:30:36;;;;;;;14.40;12.33;;;;;;;22.18;65.16;99500.66;4991201;28;20268;-63
2022/05/31 04:33:03;;;;;;;17.23;13.20;;;;;;;22.15;65.19;99505.13;4991540;28;20531;-62
2022/05/31 04:35:30;;;;;;;19.02;13.73;;;;;;;22.11;65.83;99508.75;4990701;28;20459;-62
2022/05/31 04:37:58;;;;;;;18.80;13.20;;;;;;;22.19;65.45;99507.63;4991204;28;20597;-61
2022/05/31 04:40:25;;;;;;;16.33;12.20;;;;;;;22.14;65.46;99500.81;4991009;28;20198;-62
2022/05/31 04:42:52;;;;;;;17.50;11.93;;;;;;;22.13;65.80;99501.72;4990873;28;20309;-62
2022/05/31 04:45:19;;;;;;;16.60;11.87;;;;;;;22.22;65.70;99510.13;4991366;28;20999;-63
2022/05/31 04:47:46;;;;;;;18.77;10.83;;;;;;;22.12;66.24;99490.38;4991608;28;20186;-61
2022/05/31 04:50:13;;;;;;;12.23;10.63;;;;;;;22.34;66.29;99511.50;4991140;28;20248;-61
2022/05/31 04:52:40;;;;;;;11.67;10.33;;;;;;;22.43;66.43;99511.22;4991364;28;20959;-61
2022/05/31 04:55:09;;;;;;;11.43;9.43;;;;;;;22.48;66.28;99508.47;4991057;28;20911;-62
2022/05/31 04:57:36;;;;;;;12.23;9.70;;;;;;;22.46;66.26;99508.53;4991145;28;20229;-62
2022/05/31 05:00:06;;;;;;;11.07;9.90;;;;;;;22.47;66.42;99504.97;4990707;28;20237;-61
2022/05/31 05:02:33;;;;;;;13.87;9.97;;;;;;;22.58;66.51;99507.28;4990386;28;20194;-63
2022/05/31 05:05:00;;;;;;;11.50;9.23;;;;;;;22.55;65.65;99505.59;4990984;28;20186;-62
2022/05/31 05:07:29;;;;;;;13.60;9.23;;;;;;;22.72;65.42;99505.94;4990638;28;20191;-62
2022/05/31 05:09:56;;;;;;;10.03;8.67;;;;;;;22.78;64.58;99510.13;4990427;28;20194;-62
2022/05/31 05:12:24;;;;;;;11.23;8.87;;;;;;;22.72;64.71;99503.31;4990733;28;20201;-62
2022/05/31 05:14:50;;;;;;;12.45;9.38;;;;;;;22.64;64.87;99504.47;4990286;28;20510;-62
2022/05/31 05:17:18;;;;;;;9.50;8.60;;;;;;;22.67;65.03;99499.13;4990537;28;20198;-62
2022/05/31 05:19:44;;;;;;;10.70;9.60;;;;;;;22.83;64.70;99498.59;4990612;28;20680;-62
2022/05/31 05:22:12;;;;;;;9.83;8.63;;;;;;;23.02;64.42;99505.84;4989888;28;20229;-62
2022/05/31 05:24:39;;;;;;;16.27;9.57;;;;;;;23.13;63.01;99499.31;4990670;28;20281;-63
2022/05/31 05:27:05;;;;;;;11.20;8.70;;;;;;;23.26;62.81;99505.00;4990957;28;20646;-62
2022/05/31 05:32:18;;;;;;;10.20;9.10;;;;;;;23.52;62.27;99504.09;4993231;28;20431;-62
2022/05/31 05:34:49;;;;;;;14.00;8.73;;;;;;;23.74;61.46;99511.13;4993771;28;20221;-63
2022/05/31 05:37:17;;;;;;;11.20;9.10;;;;;;;23.90;61.50;99507.00;4994318;28;20456;-62
2022/05/31 05:39:45;;;;;;;11.70;8.53;;;;;;;23.95;60.30;99507.69;4994257;28;20204;-62
2022/05/31 05:42:12;;;;;;;9.73;8.50;;;;;;;23.94;60.47;99508.63;4994033;28;20194;-61
2022/05/31 05:44:40;;;;;;;15.07;9.17;;;;;;;24.02;60.08;99508.31;4994050;28;20218;-62
2022/05/31 05:47:09;;;;;;;11.03;8.70;;;;;;;24.05;60.17;99514.31;4993935;28;20198;-62
2022/05/31 05:49:36;;;;;;;10.52;8.95;;;;;;;24.12;60.43;99512.34;4993560;28;20448;-62
2022/05/31 05:52:06;;;;;;;13.03;8.90;;;;;;;24.16;59.77;99516.56;4994029;28;20565;-62
2022/05/31 05:54:32;;;;;;;10.17;9.10;;;;;;;24.14;59.78;99509.66;4994014;28;20272;-62
2022/05/31 05:56:59;;;;;;;13.83;9.00;;;;;;;24.16;59.93;99516.56;4994111;28;20260;-62
2022/05/31 05:59:26;;;;;;;12.63;8.87;;;;;;;24.26;59.81;99510.03;4993980;28;20198;-62
2022/05/31 06:02:00;;;;;;;10.67;8.13;;;;;;;24.31;59.48;99509.88;4993843;28;20198;-62
2022/05/31 06:04:31;;;;;;;13.70;8.93;;;;;;;24.41;59.54;99508.59;4993686;28;20198;-62
2022/05/31 06:07:06;;;;;;;13.53;8.50;;;;;;;24.48;58.94;99510.03;4993823;28;20236;-63
2022/05/31 06:09:35;;;;;;;12.73;8.67;;;;;;;24.56;58.53;99514.06;4993868;28;20216;-61
2022/05/31 06:12:08;;;;;;;12.13;8.43;;;;;;;24.57;57.94;99514.94;4993365;28;20194;-62
2022/05/31 06:14:40;;;;;;;10.13;8.43;;;;;;;24.61;58.36;99511.28;4993646;28;20305;-62
2022/05/31 06:17:14;;;;;;;9.70;8.27;;;;;;;24.74;57.69;99516.88;4993123;28;20213;-63
2022/05/31 06:19:41;;;;;;;16.87;8.07;;;;;;;24.65;58.35;99512.84;4993238;28;20198;-62
2022/05/31 06:22:09;;;;;;;10.90;8.52;;;;;;;24.79;57.37;99512.28;4992514;28;20451;-61
2022/05/31 06:24:38;;;;;;;9.80;7.97;;;;;;;24.91;57.66;99501.31;4993721;28;20201;-62
2022/05/31 06:27:06;;;;;;;9.03;7.57;;;;;;;25.00;57.35;99507.03;4993258;28;20197;-63
2022/05/31 06:29:33;;;;;;;11.43;8.57;;;;;;;24.90;58.06;99505.69;4993242;28;20293;-61
2022/05/31 06:31:59;;;;;;;12.90;8.27;;;;;;;24.98;57.66;99506.25;4993110;28;20257;-61
2022/05/31 06:34:28;;;;;;;10.20;8.60;;;;;;;25.01;57.58;99500.00;4993143;28;20305;-62
2022/05/31 06:37:03;;;;;;;14.57;9.17;;;;;;;25.07;57.97;99490.09;4992975;28;20621;-62
2022/05/31 06:39:29;;;;;;;11.10;8.17;;;;;;;25.16;57.99;99497.56;4992739;28;20198;-62
2022/05/31 06:41:57;;;;;;;11.43;9.55;;;;;;;25.37;57.57;99503.69;4991886;28;20440;-62
2022/05/31 06:44:23;;;;;;;11.07;8.37;;;;;;;25.48;56.95;99498.84;4992615;28;20198;-63
2022/05/31 06:46:50;;;;;;;11.17;8.50;;;;;;;25.51;56.49;99503.97;4992589;28;20194;-62
2022/05/31 06:49:17;;;;;;;15.00;9.70;;;;;;;25.18;57.42;99498.38;4992554;28;20194;-63
2022/05/31 06:57:14;;;;;;;10.13;8.70;;;;;;;25.46;56.87;99495.38;4992466;28;20586;-63
2022/05/31 06:59:41;;;;;;;12.90;9.03;;;;;;;25.54;56.47;99487.19;4992461;28;20194;-62
2022/05/31 07:02:08;;;;;;;10.43;8.65;;;;;;;25.61;56.54;99486.81;4990206;28;20463;-63
2022/05/31 07:04:36;;;;;;;12.70;8.53;;;;;;;25.76;55.69;99488.78;4992317;28;20643;-63
2022/05/31 07:07:05;;;;;;;13.43;9.20;;;;;;;25.77;55.63;99479.94;4992253;28;20186;-62
2022/05/31 07:09:33;;;;;;;15.37;9.33;;;;;;;25.84;55.54;99483.16;4992783;28;20938;-63
2022/05/31 07:12:00;;;;;;;8.77;7.73;;;;;;;25.59;55.49;99474.66;4992960;28;20190;-63
2022/05/31 07:14:27;;;;;;;10.97;8.60;;;;;;;25.72;55.63;99486.34;4992615;28;20206;-62
2022/05/31 07:16:54;;;;;;;9.23;8.27;;;;;;;25.62;55.32;99462.22;4992304;28;20280;-62
2022/05/31 07:19:21;;;;;;;10.27;9.10;;;;;;;25.77;55.82;99479.09;4992441;28;20198;-62
2022/05/31 07:21:47;;;;;;;11.25;9.00;;;;;;;25.92;55.48;99483.66;4991087;28;20454;-61
2022/05/31 07:24:16;;;;;;;16.37;9.73;;;;;;;26.02;54.89;99487.56;4992336;28;20574;-62
2022/05/31 07:26:43;;;;;;;11.83;8.07;;;;;;;26.08;54.55;99484.66;4991982;28;20190;-62
2022/05/31 07:29:10;;;;;;;12.73;8.83;;;;;;;26.14;55.24;99473.00;4991641;28;20197;-62
2022/05/31 07:31:37;;;;;;;12.03;8.87;;;;;;;26.21;54.34;99479.66;4991781;28;20233;-62
2022/05/31 07:34:04;;;;;;;9.40;8.50;;;;;;;26.24;54.37;99471.63;4991971;28;20579;-62
2022/05/31 07:36:31;;;;;;;15.30;9.57;;;;;;;26.36;54.92;99478.97;4991703;28;20229;-62
2022/05/31 07:38:58;;;;;;;12.63;9.57;;;;;;;26.36;54.51;99469.28;4991789;28;20209;-63
2022/05/31 07:41:28;;;;;;;13.73;9.45;;;;;;;26.47;54.16;99473.16;4991006;28;20935;-56
2022/05/31 07:43:55;;;;;;;10.07;8.68;;;;;;;26.57;53.68;99477.03;4991966;28;20297;-55
2022/05/31 07:46:21;;;;;;;11.32;9.27;;;;;;;26.63;53.80;99472.34;4989963;28;20634;-57
2022/05/31 07:48:48;;;;;;;12.68;8.77;;;;;;;26.71;53.49;99470.16;4990968;28;20187;-56
2022/05/31 07:51:15;;;;;;;11.48;8.68;;;;;;;26.82;53.22;99472.28;4990416;28;20209;-56
2022/05/31 07:53:42;;;;;;;11.30;9.30;;;;;;;26.71;53.07;99469.31;4991495;28;20649;-56
2022/05/31 07:56:09;;;;;;;10.15;9.15;;;;;;;26.81;53.25;99467.97;4991528;28;20221;-56
2022/05/31 07:58:39;;;;;;;12.50;10.43;;;;;;;26.78;53.09;99442.59;4991216;28;20198;-56
2022/05/31 08:01:08;;;;;;;13.65;9.90;;;;;;;26.95;52.23;99463.69;4991341;28;20182;-57
2022/05/31 08:03:36;;;;;;;11.88;9.50;;;;;;;26.96;52.50;99464.53;4990641;28;20507;-56
2022/05/31 08:06:04;;;;;;;11.73;10.33;;;;;;;26.93;51.89;99457.66;4991136;28;20201;-56
2022/05/31 08:08:31;;;;;;;11.40;10.27;;;;;;;26.83;52.35;99437.09;4990785;28;20194;-57
2022/05/31 08:10:58;;;;;;;14.43;10.75;;;;;;;27.07;52.65;99446.38;4991134;28;20194;-57
2022/05/31 08:13:25;;;;;;;11.67;8.83;;;;;;;27.19;51.75;99455.47;4991086;28;20198;-57
2022/05/31 08:15:53;;;;;;;13.70;11.27;;;;;;;27.37;50.87;99449.19;4990909;28;20705;-56
2022/05/31 08:18:20;;;;;;;16.58;10.43;;;;;;;27.48;50.62;99450.38;4990662;28;20202;-56
2022/05/31 08:20:47;;;;;;;14.10;9.83;;;;;;;27.61;50.96;99449.72;4989888;28;20559;-56
2022/05/31 08:23:14;;;;;;;14.15;9.25;;;;;;;27.81;50.92;99449.47;4990838;28;20216;-56
2022/05/31 08:25:41;;;;;;;11.15;9.05;;;;;;;27.94;49.86;99451.38;4990634;28;20658;-56
2022/05/31 08:28:08;;;;;;;14.48;9.55;;;;;;;28.06;49.99;99450.72;4990259;28;20459;-57
2022/05/31 08:30:34;;;;;;;10.80;9.70;;;;;;;28.21;49.95;99450.81;4990998;28;20194;-57
2022/05/31 08:33:03;;;;;;;12.80;9.05;;;;;;;28.28;48.45;99445.09;4990774;28;20605;-56
2022/05/31 08:35:29;;;;;;;10.65;8.85;;;;;;;28.33;48.15;99450.09;4990613;28;20194;-56
2022/05/31 08:37:56;;;;;;;13.00;8.65;;;;;;;28.35;48.80;99443.78;4990819;28;20198;-56
2022/05/31 08:40:24;;;;;;;14.10;9.32;;;;;;;28.44;48.50;99443.28;4990754;28;20194;-55
2022/05/31 08:42:53;;;;;;;10.25;9.18;;;;;;;28.09;48.56;99439.13;4991037;28;20198;-56
2022/05/31 08:45:41;;;;;;;14.20;10.10;;;;;;;28.31;48.31;99434.34;4990499;28;20256;-55
2022/05/31 08:48:24;;;;;;;12.50;9.20;;;;;;;28.33;47.94;99435.09;4989459;28;20529;-55
2022/05/31 08:53:44;;;;;;;12.70;8.85;;;;;;;28.32;47.74;99430.75;4990809;28;20673;-55
2022/05/31 08:59:06;;;;;;;16.40;9.63;;;;;;;28.68;48.66;99436.59;4990286;28;20213;-54
2022/05/31 09:01:35;;;;;;;11.73;9.80;;;;;;;28.74;46.52;99432.72;4989319;28;20456;-56
2022/05/31 09:04:15;;;;;;;12.98;8.77;;;;;;;28.91;46.71;99427.28;4990029;28;20665;-55
2022/05/31 09:06:48;;;;;;;11.35;9.40;;;;;;;28.87;47.57;99428.41;4990319;28;20581;-55
2022/05/31 09:09:18;;;;;;;22.63;13.23;;;;;;;28.95;46.89;99428.81;4990161;28;20576;-55
2022/05/31 09:11:57;;;;;;;18.75;13.38;;;;;;;29.14;46.69;99425.94;4990155;28;20198;-61
2022/05/31 09:14:35;;;;;;;10.77;9.30;;;;;;;29.04;45.92;99422.97;4989895;28;20632;-61
2022/05/31 09:17:08;;;;;;;14.68;9.57;;;;;;;29.07;46.08;99421.94;4989847;28;20372;-61
2022/05/31 09:19:42;;;;;;;18.27;10.55;;;;;;;29.11;46.16;99411.09;4990005;28;20581;-62
2022/05/31 09:22:10;;;;;;;14.00;9.15;;;;;;;29.22;45.53;99424.56;4990109;28;20230;-62
2022/05/31 09:24:41;;;;;;;10.55;8.05;;;;;;;29.28;44.50;99418.03;4990494;28;20198;-61
2022/05/31 09:27:11;;;;;;;9.82;8.85;;;;;;;29.02;45.03;99421.34;4989644;28;20201;-62
2022/05/31 09:29:55;;;;;;;11.63;8.50;;;;;;;29.26;44.91;99419.91;4989845;28;20211;-62
2022/05/31 09:32:35;;;;;;;11.35;8.93;;;;;;;29.37;45.55;99417.44;4988272;28;20252;-61
2022/05/31 09:35:29;;;;;;;14.30;8.65;;;;;;;28.94;45.16;99407.75;4989380;28;20202;-61
2022/05/31 09:38:14;;;;;;;11.32;8.68;;;;;;;29.07;46.20;99419.28;4989539;28;20656;-62
2022/05/31 09:40:46;;;;;;;13.02;8.23;;;;;;;29.14;44.62;99423.28;4989747;28;20198;-62
2022/05/31 09:43:23;;;;;;;9.45;8.55;;;;;;;29.21;44.54;99411.34;4989475;28;20443;-61
2022/05/31 09:45:58;;;;;;;12.55;7.97;;;;;;;29.34;44.25;99404.38;4989736;28;20198;-62
2022/05/31 09:48:25;;;;;;;12.85;9.15;;;;;;;29.42;44.15;99388.88;4990340;28;20232;-61
2022/05/31 09:50:59;;;;;;;10.23;8.45;;;;;;;29.53;44.50;99388.22;4990123;28;20198;-61
2022/05/31 09:59:10;;;;;;;9.52;8.20;;;;;;;29.86;43.74;99395.88;4979904;28;20277;-54
2022/05/31 10:01:44;;;;;;;17.35;10.88;;;;;;;30.03;42.54;99396.47;4987326;28;20206;-61
2022/05/31 10:04:14;;;;;;;13.85;9.75;;;;;;;30.20;42.83;99398.00;4983446;28;20325;-62
2022/05/31 10:07:01;;;;;;;11.52;8.50;;;;;;;30.30;42.62;99389.34;4969869;28;20441;-63
2022/05/31 10:09:33;;;;;;;11.20;8.05;;;;;;;30.43;41.82;99389.44;4982097;28;20198;-62
2022/05/31 10:12:26;;;;;;;8.25;7.50;;;;;;;30.46;41.23;99383.06;4989633;28;20360;-63
2022/05/31 10:14:54;;;;;;;11.05;8.43;;;;;;;30.46;40.52;99372.47;4989780;28;20198;-62
2022/05/31 10:17:37;;;;;;;12.25;7.82;;;;;;;30.48;41.08;99371.41;4993140;28;20732;-62
2022/05/31 10:20:12;;;;;;;9.52;7.22;;;;;;;30.46;41.75;99368.03;4993127;28;20201;-61
2022/05/31 10:22:49;;;;;;;14.93;7.80;;;;;;;30.48;41.39;99368.75;4992803;28;20697;-62
2022/05/31 10:25:21;;;;;;;10.45;7.10;;;;;;;30.35;41.42;99366.03;4992384;28;20272;-63
2022/05/31 10:27:49;;;;;;;10.95;7.38;;;;;;;30.41;42.02;99364.81;4992213;28;20974;-62
2022/05/31 10:30:20;;;;;;;11.95;8.55;;;;;;;30.47;41.73;99374.16;4993071;28;20182;-62
2022/05/31 10:32:51;;;;;;;7.53;6.72;;;;;;;30.45;40.74;99374.28;4992794;28;20646;-63
2022/05/31 10:35:21;;;;;;;10.25;7.10;;;;;;;30.36;40.52;99378.38;4992526;28;20566;-63
2022/05/31 10:37:57;;;;;;;12.27;6.95;;;;;;;30.38;40.17;99371.16;4991997;28;20300;-63
2022/05/31 10:40:29;;;;;;;8.00;7.15;;;;;;;30.45;40.21;99373.41;4992820;28;20205;-65
2022/05/31 10:43:03;;;;;;;8.38;6.68;;;;;;;30.53;38.84;99369.28;4990856;28;20202;-66
2022/05/31 10:45:32;;;;;;;8.05;6.60;;;;;;;30.48;38.39;99367.91;4991953;28;20277;-65
2022/05/31 10:48:01;;;;;;;8.10;5.85;;;;;;;30.66;38.64;99370.16;4992470;28;20208;-58
2022/05/31 10:50:34;;;;;;;11.80;7.38;;;;;;;30.72;38.80;99369.75;4991799;28;20906;-58
2022/05/31 10:53:14;;;;;;;13.88;7.60;;;;;;;30.97;39.22;99368.94;4992512;28;20253;-58
2022/05/31 10:55:43;;;;;;;9.48;8.40;;;;;;;31.19;39.35;99373.59;4991977;28;20276;-57
2022/05/31 10:58:28;;;;;;;11.65;7.15;;;;;;;30.88;39.25;99362.44;4990200;28;20292;-57
2022/05/31 11:01:00;;;;;;;12.40;7.32;;;;;;;30.71;39.70;99362.72;4989123;28;20195;-58
2022/05/31 11:03:38;;;;;;;11.35;8.40;;;;;;;30.93;39.85;99352.38;4991607;28;20305;-55
2022/05/31 11:06:25;;;;;;;11.55;7.57;;;;;;;31.16;38.91;99353.44;4989295;28;20198;-55
2022/05/31 11:11:56;;;;;;;8.98;7.00;;;;;;;31.38;37.78;99337.69;4988502;28;20753;-56
2022/05/31 11:14:37;;;;;;;12.27;8.73;;;;;;;31.31;38.08;99298.41;4990279;28;20339;-57
2022/05/31 11:17:23;;;;;;;7.63;6.60;;;;;;;31.31;36.76;99323.16;4989229;28;20768;-56
2022/05/31 11:20:00;;;;;;;8.45;6.80;;;;;;;31.51;37.25;99316.41;4989121;28;20198;-57
2022/05/31 11:22:39;;;;;;;12.50;8.95;;;;;;;31.56;36.92;99316.97;4991449;28;20229;-57
2022/05/31 11:25:36;;;;;;;12.90;8.07;;;;;;;31.72;36.69;99306.91;4990329;28;20190;-57
2022/05/31 11:28:19;;;;;;;9.80;7.77;;;;;;;31.82;36.31;99307.06;4988770;28;20447;-55
2022/05/31 11:31:10;;;;;;;11.20;6.68;;;;;;;31.89;35.61;99301.16;4987687;28;20657;-56
2022/05/31 11:33:52;;;;;;;9.90;5.80;;;;;;;31.82;35.24;99276.03;4990954;28;20289;-55
2022/05/31 11:36:29;;;;;;;7.32;5.38;;;;;;;32.09;33.57;99286.44;4988610;28;20202;-56
2022/05/31 11:39:27;;;;;;;8.75;5.65;;;;;;;32.20;34.03;99291.78;4991024;28;20202;-56
2022/05/31 11:42:09;;;;;;;9.68;5.97;;;;;;;32.18;33.51;99299.03;4991417;28;20198;-55
2022/05/31 11:44:56;;;;;;;8.02;5.75;;;;;;;32.16;34.01;99297.47;4991438;28;20197;-55
2022/05/31 11:47:52;;;;;;;9.63;5.80;;;;;;;32.32;35.05;99290.00;4991030;28;20618;-56
2022/05/31 11:50:27;;;;;;;7.85;6.18;;;;;;;32.40;34.99;99292.94;4990474;28;20440;-56
2022/05/31 11:53:14;;;;;;;7.80;5.40;;;;;;;32.53;35.33;99291.91;4990929;28;20612;-56
2022/05/31 11:55:49;;;;;;;10.38;6.03;;;;;;;32.53;34.15;99291.91;4991307;28;20202;-55
2022/05/31 11:58:27;;;;;;;8.45;5.50;;;;;;;32.50;34.85;99291.25;4991156;28;20221;-55
2022/05/31 12:01:04;;;;;;;8.93;6.93;;;;;;;32.64;35.07;99293.75;4990321;28;20260;-55
2022/05/31 12:03:37;;;;;;;7.22;6.20;;;;;;;32.49;34.54;99295.75;4990861;28;20230;-55
2022/05/31 12:06:13;;;;;;;8.85;6.78;;;;;;;32.57;34.45;99298.72;4991169;28;20195;-55
2022/05/31 12:08:47;;;;;;;10.00;5.68;;;;;;;32.91;34.51;99299.56;4985717;28;20252;-62
2022/05/31 12:11:21;;;;;;;9.40;7.07;;;;;;;32.95;33.86;99310.84;4989638;28;20445;-63